Time;durP1;ratioP1;P1;durP2;ratioP2;P2;SDS_P1;SDS_P2;PMS_P1;PMS_P2;Temp;Humidity;BMP_temperature;BMP_pressure;BME280_temperature;BME280_humidity;BME280_pressure;Samples;Min_cycle;Max_cycle;Signal;HPM_P1;HPM_P2
2022/08/30 00:02:00;;;;;;;3.63;2.78;;;16.40;99.90;;;;;;5014310;28;20202;-71
2022/08/30 00:04:27;;;;;;;4.60;3.17;;;16.30;99.90;;;;;;5016470;28;20253;-72
2022/08/30 00:06:54;;;;;;;8.35;3.88;;;16.30;99.90;;;;;;5013109;28;20235;-72
2022/08/30 00:09:21;;;;;;;7.53;3.65;;;16.30;99.90;;;;;;5011255;28;20297;-73
2022/08/30 00:11:50;;;;;;;5.55;3.35;;;16.30;99.90;;;;;;5011858;28;20199;-73
2022/08/30 00:14:19;;;;;;;3.83;2.90;;;16.20;99.90;;;;;;5014807;28;20225;-73
2022/08/30 00:16:46;;;;;;;4.68;2.70;;;16.10;99.90;;;;;;5015467;28;20199;-73
2022/08/30 00:19:14;;;;;;;5.50;3.38;;;16.10;99.90;;;;;;5010813;28;20208;-74
2022/08/30 00:21:41;;;;;;;3.35;3.05;;;16.00;99.90;;;;;;5009454;28;20198;-70
2022/08/30 00:24:09;;;;;;;4.70;2.70;;;15.90;99.90;;;;;;5017584;28;20638;-73
2022/08/30 00:26:35;;;;;;;5.35;3.00;;;15.90;99.90;;;;;;5009531;28;20200;-72
2022/08/30 00:29:02;;;;;;;4.68;3.03;;;15.90;99.90;;;;;;5010317;28;20294;-72
2022/08/30 00:31:30;;;;;;;3.28;2.67;;;15.70;99.90;;;;;;5000370;28;20289;-72
2022/08/30 00:33:57;;;;;;;3.85;2.97;;;15.80;99.90;;;;;;5012658;28;20232;-72
2022/08/30 00:36:25;;;;;;;7.80;3.65;;;15.80;99.90;;;;;;5013966;28;20299;-72
2022/08/30 00:38:53;;;;;;;4.65;3.60;;;15.90;99.90;;;;;;5013148;28;20201;-72
2022/08/30 00:41:20;;;;;;;7.47;3.50;;;15.70;99.90;;;;;;5011885;28;20814;-72
2022/08/30 00:43:47;;;;;;;5.18;3.38;;;15.70;99.90;;;;;;5012493;28;20295;-72
2022/08/30 00:46:14;;;;;;;5.60;3.55;;;15.60;99.90;;;;;;5012837;28;20663;-71
2022/08/30 00:48:44;;;;;;;4.22;3.50;;;15.60;99.90;;;;;;5012111;28;20237;-72
2022/08/30 00:51:14;;;;;;;3.90;3.60;;;15.60;99.90;;;;;;5019584;28;20205;-72
2022/08/30 00:53:47;;;;;;;3.88;3.58;;;15.60;99.90;;;;;;5012692;28;20252;-73
2022/08/30 00:56:16;;;;;;;7.50;3.63;;;15.60;99.90;;;;;;5020028;28;20206;-74
2022/08/30 00:58:47;;;;;;;5.30;3.58;;;15.60;99.90;;;;;;5013726;28;20250;-73
2022/08/30 01:01:15;;;;;;;6.70;4.22;;;15.60;99.90;;;;;;5021369;28;20207;-72
2022/08/30 01:03:43;;;;;;;5.22;3.30;;;15.60;99.90;;;;;;5017895;28;20224;-73
2022/08/30 01:06:12;;;;;;;4.13;3.72;;;15.50;99.90;;;;;;5015858;28;20205;-73
2022/08/30 01:08:39;;;;;;;5.50;4.07;;;15.50;99.90;;;;;;5016142;28;20208;-73
2022/08/30 01:11:08;;;;;;;4.85;3.75;;;15.50;99.90;;;;;;5024307;28;20232;-73
2022/08/30 01:13:36;;;;;;;7.68;3.50;;;15.50;99.90;;;;;;5022112;28;20265;-73
2022/08/30 01:16:04;;;;;;;4.30;3.63;;;15.40;99.90;;;;;;5016277;28;20718;-72
2022/08/30 01:18:32;;;;;;;3.15;2.85;;;15.40;99.90;;;;;;5016234;28;20288;-72
2022/08/30 01:21:06;;;;;;;5.47;4.25;;;15.40;99.90;;;;;;5015164;28;20544;-74
2022/08/30 01:23:36;;;;;;;4.00;3.38;;;15.40;99.90;;;;;;5016395;28;20286;-73
2022/08/30 01:26:05;;;;;;;5.75;4.15;;;15.40;99.90;;;;;;5018460;28;20201;-74
2022/08/30 01:28:33;;;;;;;6.13;3.90;;;15.30;99.90;;;;;;5015522;28;20248;-74
2022/08/30 01:31:00;;;;;;;4.10;3.70;;;15.40;99.90;;;;;;5014575;28;20292;-73
2022/08/30 01:33:27;;;;;;;4.13;3.72;;;15.30;99.90;;;;;;5016608;28;20673;-73
2022/08/30 01:35:57;;;;;;;6.80;3.83;;;15.20;99.90;;;;;;5016335;28;20244;-73
2022/08/30 01:38:27;;;;;;;5.03;3.05;;;15.20;99.90;;;;;;5018459;28;20278;-73
2022/08/30 01:40:59;;;;;;;4.45;4.05;;;15.20;99.90;;;;;;5029514;28;20201;-72
2022/08/30 01:43:27;;;;;;;3.85;3.40;;;15.20;99.90;;;;;;5022631;28;20255;-71
2022/08/30 01:45:55;;;;;;;6.65;4.05;;;15.20;99.90;;;;;;5026776;28;20268;-73
2022/08/30 01:48:22;;;;;;;6.65;5.18;;;15.20;99.90;;;;;;5025753;28;20207;-72
2022/08/30 01:50:49;;;;;;;4.68;3.45;;;15.10;99.90;;;;;;5025368;28;20205;-72
2022/08/30 01:53:16;;;;;;;4.03;3.00;;;15.10;99.90;;;;;;5015699;28;20312;-73
2022/08/30 01:55:43;;;;;;;4.32;3.60;;;15.10;99.90;;;;;;5015008;28;20294;-72
2022/08/30 01:58:12;;;;;;;6.38;3.92;;;15.10;99.90;;;;;;5015040;28;20197;-72
2022/08/30 02:00:39;;;;;;;4.25;3.30;;;15.10;99.90;;;;;;5014758;28;20201;-73
2022/08/30 02:03:07;;;;;;;4.70;3.95;;;15.10;99.90;;;;;;5014115;28;20255;-73
2022/08/30 02:05:35;;;;;;;4.45;4.05;;;15.10;99.90;;;;;;5014903;28;20252;-72
2022/08/30 02:08:03;;;;;;;8.50;4.43;;;15.00;99.90;;;;;;5002855;28;20201;-73
2022/08/30 02:10:30;;;;;;;7.75;4.25;;;15.00;99.90;;;;;;5014594;28;20293;-73
2022/08/30 02:12:57;;;;;;;3.35;3.05;;;15.00;99.90;;;;;;5013040;28;20247;-73
2022/08/30 02:15:26;;;;;;;4.53;3.30;;;14.90;99.90;;;;;;5022197;28;20216;-72
2022/08/30 02:17:55;;;;;;;5.18;3.50;;;14.90;99.90;;;;;;5022518;28;20197;-72
2022/08/30 02:20:22;;;;;;;3.60;3.30;;;15.00;99.90;;;;;;5009943;28;20233;-72
2022/08/30 02:22:49;;;;;;;4.45;3.90;;;14.90;99.90;;;;;;5014628;28;20267;-74
2022/08/30 02:25:16;;;;;;;4.22;3.05;;;14.90;99.90;;;;;;5015321;28;20588;-72
2022/08/30 02:27:43;;;;;;;5.40;3.15;;;15.00;99.90;;;;;;5015306;28;20224;-73
2022/08/30 02:30:11;;;;;;;6.07;3.60;;;15.00;99.90;;;;;;5027265;28;20250;-73
2022/08/30 02:32:40;;;;;;;5.38;3.95;;;15.00;99.90;;;;;;5014608;28;20553;-72
2022/08/30 02:35:08;;;;;;;3.88;3.45;;;15.10;99.90;;;;;;5003133;28;20317;-72
2022/08/30 02:37:35;;;;;;;5.55;4.20;;;15.10;99.90;;;;;;5019926;28;20237;-73
2022/08/30 02:40:02;;;;;;;5.47;3.30;;;15.10;99.90;;;;;;5020834;28;20284;-72
2022/08/30 02:42:29;;;;;;;6.07;3.55;;;15.10;99.90;;;;;;5012563;28;20208;-73
2022/08/30 02:44:56;;;;;;;4.45;3.50;;;15.00;99.90;;;;;;5015245;28;20299;-72
2022/08/30 02:47:23;;;;;;;3.35;3.08;;;15.00;99.90;;;;;;5014121;28;20205;-73
2022/08/30 02:49:51;;;;;;;7.85;3.65;;;15.00;99.90;;;;;;5013160;28;20232;-72
2022/08/30 02:52:19;;;;;;;6.63;4.10;;;15.00;99.90;;;;;;5012765;28;20295;-70
2022/08/30 02:54:46;;;;;;;4.57;3.75;;;14.90;99.90;;;;;;5014606;28;20229;-72
2022/08/30 02:57:13;;;;;;;4.03;3.63;;;14.90;99.90;;;;;;5015285;28;20211;-74
2022/08/30 02:59:42;;;;;;;5.75;3.33;;;14.90;99.90;;;;;;5013659;28;20279;-74
2022/08/30 03:02:10;;;;;;;4.43;3.70;;;14.90;99.90;;;;;;5013858;28;20572;-73
2022/08/30 03:04:38;;;;;;;4.57;3.60;;;14.90;99.90;;;;;;5013748;28;20662;-72
2022/08/30 03:07:07;;;;;;;6.28;3.85;;;14.90;99.90;;;;;;5014033;28;20205;-73
2022/08/30 03:09:34;;;;;;;4.80;3.60;;;14.90;99.90;;;;;;5012190;28;20201;-74
2022/08/30 03:12:03;;;;;;;4.60;3.22;;;14.90;99.90;;;;;;5012189;28;20197;-73
2022/08/30 03:14:30;;;;;;;3.88;3.38;;;14.80;99.90;;;;;;5012833;28;20258;-71
2022/08/30 03:16:58;;;;;;;3.92;3.38;;;14.80;99.90;;;;;;5014534;28;20225;-73
2022/08/30 03:19:25;;;;;;;3.47;2.90;;;14.80;99.90;;;;;;5015174;28;20364;-72
2022/08/30 03:21:52;;;;;;;3.47;3.10;;;14.80;99.90;;;;;;5014757;28;20221;-72
2022/08/30 03:24:21;;;;;;;4.70;3.42;;;14.70;99.90;;;;;;5019597;28;20221;-70
2022/08/30 03:26:48;;;;;;;5.40;2.90;;;14.80;99.90;;;;;;5019080;28;20201;-72
2022/08/30 03:29:15;;;;;;;3.65;3.05;;;14.80;99.90;;;;;;5018886;28;20236;-72
2022/08/30 03:31:42;;;;;;;8.13;3.58;;;14.90;99.90;;;;;;5017006;28;20251;-72
2022/08/30 03:34:10;;;;;;;6.05;2.25;;;14.70;99.90;;;;;;5018101;28;20224;-72
2022/08/30 03:36:39;;;;;;;4.65;2.33;;;14.70;99.90;;;;;;5014328;28;20216;-73
2022/08/30 03:39:08;;;;;;;4.50;3.00;;;14.80;99.90;;;;;;5021604;28;20200;-72
2022/08/30 03:41:36;;;;;;;3.30;2.90;;;14.70;99.90;;;;;;5014180;28;20682;-72
2022/08/30 03:44:04;;;;;;;3.15;2.85;;;14.70;99.90;;;;;;5017310;28;20259;-72
2022/08/30 03:46:31;;;;;;;6.38;4.00;;;14.70;99.90;;;;;;5033251;28;20208;-71
2022/08/30 03:48:57;;;;;;;3.10;2.60;;;14.70;99.90;;;;;;5015474;28;20231;-72
2022/08/30 03:51:25;;;;;;;4.75;2.70;;;14.70;99.90;;;;;;5014326;28;20193;-72
2022/08/30 03:53:52;;;;;;;4.00;2.60;;;14.60;99.90;;;;;;5012833;28;20229;-72
2022/08/30 03:56:20;;;;;;;5.65;2.63;;;14.60;99.90;;;;;;5013967;28;20280;-72
2022/08/30 03:58:48;;;;;;;4.35;2.80;;;14.60;99.90;;;;;;5013200;28;20201;-73
2022/08/30 04:01:15;;;;;;;3.40;2.72;;;14.60;99.90;;;;;;5009911;28;20247;-73
2022/08/30 04:03:43;;;;;;;4.28;2.92;;;14.70;99.90;;;;;;5013170;28;20225;-72
2022/08/30 04:06:11;;;;;;;4.13;2.75;;;14.70;99.90;;;;;;5003460;28;20580;-73
2022/08/30 04:08:39;;;;;;;2.85;2.40;;;14.60;99.90;;;;;;5012563;28;20259;-72
2022/08/30 04:11:06;;;;;;;3.83;2.70;;;14.70;99.90;;;;;;5011246;28;21023;-72
2022/08/30 04:13:33;;;;;;;9.00;3.58;;;14.70;99.90;;;;;;5007034;28;20226;-72
2022/08/30 04:16:02;;;;;;;3.22;2.63;;;14.70;99.90;;;;;;5008866;28;20197;-72
2022/08/30 04:18:30;;;;;;;4.30;2.80;;;14.70;99.90;;;;;;5011735;28;20213;-73
2022/08/30 04:20:57;;;;;;;3.22;2.92;;;14.70;99.90;;;;;;5012607;28;20667;-73
2022/08/30 04:23:25;;;;;;;4.88;2.67;;;14.70;99.90;;;;;;5010367;28;20225;-72
2022/08/30 04:25:52;;;;;;;3.67;2.88;;;14.70;99.90;;;;;;5013233;28;20676;-73
2022/08/30 04:28:20;;;;;;;4.95;3.30;;;14.70;99.90;;;;;;5012580;28;20201;-73
2022/08/30 04:30:47;;;;;;;3.15;2.60;;;14.80;99.90;;;;;;5015192;28;20586;-73
2022/08/30 04:33:16;;;;;;;3.67;2.45;;;14.80;99.90;;;;;;5010649;28;20229;-73
2022/08/30 04:35:45;;;;;;;6.82;3.28;;;14.80;99.90;;;;;;5008893;28;20264;-72
2022/08/30 04:38:13;;;;;;;5.40;2.25;;;14.90;99.90;;;;;;5017136;28;20233;-73
2022/08/30 04:40:42;;;;;;;3.85;2.60;;;14.90;99.90;;;;;;5016092;28;20197;-72
2022/08/30 04:43:10;;;;;;;7.07;3.97;;;14.90;99.90;;;;;;5016908;28;20231;-72
2022/08/30 04:45:39;;;;;;;5.35;4.03;;;14.90;99.90;;;;;;5015665;28;20213;-74
2022/08/30 04:48:07;;;;;;;5.45;2.50;;;14.90;99.90;;;;;;5014980;28;20201;-72
2022/08/30 04:50:35;;;;;;;5.47;2.78;;;14.90;99.90;;;;;;5015099;28;20543;-72
2022/08/30 04:53:02;;;;;;;6.07;2.60;;;14.90;99.90;;;;;;5016110;28;20262;-72
2022/08/30 04:55:29;;;;;;;4.53;2.97;;;14.90;99.90;;;;;;5017767;28;20225;-72
2022/08/30 04:57:56;;;;;;;9.60;4.43;;;15.00;99.90;;;;;;5015237;28;20274;-72
2022/08/30 05:00:23;;;;;;;4.03;2.90;;;15.00;99.90;;;;;;5015612;28;20201;-73
2022/08/30 05:02:50;;;;;;;3.70;2.60;;;15.10;99.90;;;;;;5014054;28;20640;-74
2022/08/30 05:08:04;;;;;;;8.45;2.67;;;15.20;99.90;;;;;;5016351;28;20286;-73
2022/08/30 05:10:31;;;;;;;3.28;2.30;;;15.30;99.90;;;;;;5011399;28;20247;-73
2022/08/30 05:12:58;;;;;;;3.50;2.67;;;15.30;99.90;;;;;;5008008;28;20212;-73
2022/08/30 05:15:25;;;;;;;5.88;2.25;;;15.50;99.90;;;;;;5015468;28;20245;-72
2022/08/30 05:17:52;;;;;;;3.22;2.50;;;15.50;99.90;;;;;;5015599;28;20285;-74
2022/08/30 05:20:19;;;;;;;4.45;2.75;;;15.60;99.90;;;;;;5014593;28;20201;-73
2022/08/30 05:22:49;;;;;;;5.68;2.85;;;15.70;99.90;;;;;;5015020;28;20201;-75
2022/08/30 05:25:19;;;;;;;3.60;2.50;;;15.80;99.90;;;;;;5015928;28;20206;-74
2022/08/30 05:27:48;;;;;;;3.05;2.50;;;15.80;99.90;;;;;;5018804;28;20633;-71
2022/08/30 05:30:17;;;;;;;5.13;3.50;;;15.90;99.90;;;;;;5018538;28;20229;-73
2022/08/30 05:32:44;;;;;;;2.40;2.20;;;16.00;99.90;;;;;;5013110;28;20201;-72
2022/08/30 05:35:13;;;;;;;5.18;3.30;;;16.10;99.90;;;;;;5017151;28;20565;-74
2022/08/30 05:37:41;;;;;;;6.10;2.60;;;16.20;99.90;;;;;;5019496;28;20216;-73
2022/08/30 05:40:09;;;;;;;4.18;2.67;;;16.30;99.90;;;;;;5027491;28;20234;-72
2022/08/30 05:42:40;;;;;;;3.30;2.72;;;16.40;99.90;;;;;;5021743;28;20327;-72
2022/08/30 05:45:08;;;;;;;3.40;2.70;;;16.70;99.90;;;;;;5018427;28;20311;-73
2022/08/30 05:47:35;;;;;;;2.20;1.90;;;17.60;99.90;;;;;;5016494;28;20615;-74
2022/08/30 05:50:03;;;;;;;7.17;2.20;;;18.70;99.90;;;;;;5015326;28;20475;-73
2022/08/30 05:52:40;;;;;;;6.23;2.77;;;19.60;99.90;;;;;;5014178;28;20459;-73
2022/08/30 05:55:08;;;;;;;3.53;1.70;;;20.70;99.90;;;;;;5016331;28;20489;-73
2022/08/30 05:57:37;;;;;;;5.23;3.00;;;21.40;99.90;;;;;;5015494;28;20527;-71
2022/08/30 06:00:08;;;;;;;4.53;1.87;;;21.30;99.90;;;;;;5018086;28;20498;-73
2022/08/30 06:02:35;;;;;;;4.03;2.17;;;21.30;99.90;;;;;;5011841;28;20452;-73
2022/08/30 06:05:02;;;;;;;3.37;1.90;;;21.20;99.90;;;;;;5014634;28;20542;-71
2022/08/30 06:07:29;;;;;;;7.13;3.07;;;21.00;99.90;;;;;;5014951;28;20811;-72
2022/08/30 06:09:57;;;;;;;4.30;2.40;;;20.70;99.90;;;;;;5008400;28;20447;-73
2022/08/30 06:12:24;;;;;;;5.10;1.87;;;20.50;99.90;;;;;;5015394;28;20446;-71
2022/08/30 06:14:58;;;;;;;3.30;2.10;;;20.40;99.90;;;;;;5011857;28;20489;-72
2022/08/30 06:17:26;;;;;;;3.30;1.70;;;20.40;99.90;;;;;;5015090;28;20528;-74
2022/08/30 06:19:54;;;;;;;4.80;2.70;;;20.30;99.90;;;;;;5008942;28;20930;-73
2022/08/30 06:22:20;;;;;;;2.47;2.10;;;20.00;99.90;;;;;;5014722;28;20503;-74
2022/08/30 06:24:47;;;;;;;4.17;2.03;;;19.80;99.90;;;;;;5016710;28;21048;-75
2022/08/30 06:27:15;;;;;;;9.17;2.40;;;19.60;99.90;;;;;;5011600;28;20953;-76
2022/08/30 06:29:42;;;;;;;2.60;2.30;;;19.40;99.90;;;;;;5011259;28;20452;-79
2022/08/30 06:32:11;;;;;;;4.77;2.27;;;19.30;99.90;;;;;;5012775;28;20482;-75
2022/08/30 06:34:39;;;;;;;6.70;2.10;;;19.10;99.90;;;;;;5015007;28;20487;-77
2022/08/30 06:37:06;;;;;;;2.27;1.53;;;19.00;99.90;;;;;;5009217;28;20802;-72
2022/08/30 06:39:33;;;;;;;4.53;2.43;;;18.90;99.90;;;;;;5015008;28;20447;-79
2022/08/30 06:42:00;;;;;;;4.03;2.07;;;18.90;99.90;;;;;;5005737;28;20512;-75
2022/08/30 06:44:27;;;;;;;2.77;1.80;;;18.90;99.90;;;;;;5007096;28;20563;-75
2022/08/30 06:46:54;;;;;;;3.93;2.30;;;18.90;99.90;;;;;;5009609;28;20445;-76
2022/08/30 06:49:22;;;;;;;3.57;2.20;;;18.90;99.90;;;;;;5011533;28;20432;-73
2022/08/30 06:51:50;;;;;;;3.73;1.53;;;18.90;99.90;;;;;;5010130;28;20432;-75
2022/08/30 06:54:17;;;;;;;7.33;2.80;;;19.00;99.90;;;;;;5013225;28;20465;-75
2022/08/30 06:56:45;;;;;;;8.83;2.87;;;19.00;99.90;;;;;;5012051;28;20443;-75
2022/08/30 06:59:12;;;;;;;3.13;2.40;;;19.10;99.90;;;;;;5016740;28;20453;-78
2022/08/30 07:01:39;;;;;;;3.83;2.13;;;19.20;99.90;;;;;;5016368;28;20482;-75
2022/08/30 07:04:06;;;;;;;3.53;2.17;;;19.10;99.90;;;;;;5009167;28;20547;-74
2022/08/30 07:06:35;;;;;;;7.47;2.53;;;19.30;99.90;;;;;;5006787;28;20466;-73
2022/08/30 07:09:02;;;;;;;8.30;2.30;;;19.40;99.90;;;;;;5012446;28;20444;-74
2022/08/30 07:11:36;;;;;;;2.80;1.70;;;19.40;99.90;;;;;;5014698;28;20520;-74
2022/08/30 07:14:04;;;;;;;2.33;1.53;;;19.30;99.90;;;;;;5013891;28;20455;-74
2022/08/30 07:16:31;;;;;;;2.73;2.10;;;19.30;99.90;;;;;;5012710;28;20472;-75
2022/08/30 07:18:58;;;;;;;4.47;2.63;;;19.30;99.90;;;;;;5005208;28;21002;-75
2022/08/30 07:21:29;;;;;;;2.60;1.97;;;19.30;99.90;;;;;;5013329;28;20547;-76
2022/08/30 07:24:02;;;;;;;4.57;2.37;;;19.20;99.90;;;;;;5013732;28;20588;-76
2022/08/30 07:26:32;;;;;;;5.43;3.23;;;19.20;99.90;;;;;;5013776;28;20492;-78
2022/08/30 07:29:00;;;;;;;6.10;4.33;;;19.10;99.90;;;;;;5015428;28;20965;-75
2022/08/30 07:31:28;;;;;;;6.90;4.20;;;19.10;99.90;;;;;;5013907;28;20465;-76
2022/08/30 07:33:56;;;;;;;7.77;5.73;;;18.90;99.90;;;;;;5017390;28;20564;-75
2022/08/30 07:36:23;;;;;;;14.23;8.93;;;18.80;99.90;;;;;;5005838;28;20484;-75
2022/08/30 07:38:54;;;;;;;10.27;6.83;;;18.80;99.90;;;;;;5026585;28;20538;-75
2022/08/30 07:41:25;;;;;;;4.77;3.00;;;18.80;99.90;;;;;;5029234;28;20447;-72
2022/08/30 07:43:52;;;;;;;4.83;3.33;;;18.70;99.90;;;;;;5015311;28;20578;-73
2022/08/30 07:46:21;;;;;;;7.37;2.60;;;18.70;99.90;;;;;;5014806;28;20515;-75
2022/08/30 07:48:48;;;;;;;3.70;2.77;;;18.70;99.90;;;;;;5017506;28;21274;-72
2022/08/30 07:51:17;;;;;;;4.73;3.80;;;18.60;99.90;;;;;;5016693;28;20450;-73
2022/08/30 07:53:45;;;;;;;3.70;2.40;;;18.70;99.90;;;;;;5004918;28;20462;-75
2022/08/30 07:56:15;;;;;;;6.40;3.80;;;18.90;99.90;;;;;;5021851;28;20976;-73
2022/08/30 07:58:43;;;;;;;4.40;2.73;;;19.20;99.90;;;;;;5026100;28;20480;-76
2022/08/30 08:01:12;;;;;;;3.50;2.30;;;19.60;99.90;;;;;;5016028;28;20440;-74
2022/08/30 08:03:40;;;;;;;6.00;4.00;;;20.30;99.90;;;;;;5016315;28;20477;-73
2022/08/30 08:06:08;;;;;;;4.70;2.43;;;21.30;99.90;;;;;;5018599;28;20945;-74
2022/08/30 08:08:38;;;;;;;3.40;2.67;;;21.90;99.90;;;;;;5034141;28;20457;-73
2022/08/30 08:11:09;;;;;;;4.10;2.40;;;23.20;99.90;;;;;;5022752;28;20523;-74
2022/08/30 08:13:36;;;;;;;4.07;2.20;;;24.00;96.60;;;;;;5020360;28;20470;-76
2022/08/30 08:16:05;;;;;;;3.43;2.30;;;24.80;94.90;;;;;;5018385;28;20510;-73
2022/08/30 08:18:33;;;;;;;5.97;2.30;;;25.30;93.10;;;;;;5027893;28;20522;-74
2022/08/30 08:21:01;;;;;;;3.40;2.30;;;25.40;92.40;;;;;;5014844;28;20487;-72
2022/08/30 08:23:29;;;;;;;3.67;2.73;;;25.90;91.70;;;;;;5015768;28;20994;-75
2022/08/30 08:25:56;;;;;;;9.57;2.80;;;26.10;91.20;;;;;;5011789;28;20468;-74
2022/08/30 08:28:24;;;;;;;4.87;2.20;;;26.10;90.90;;;;;;5019740;28;20482;-74
2022/08/30 08:30:52;;;;;;;2.13;1.73;;;26.70;90.60;;;;;;5011240;28;20451;-73
2022/08/30 08:33:20;;;;;;;5.23;2.90;;;27.50;88.20;;;;;;5014121;28;20467;-74
2022/08/30 08:35:48;;;;;;;3.70;2.00;;;28.60;85.20;;;;;;5014617;28;20499;-75
2022/08/30 08:38:16;;;;;;;3.97;1.93;;;30.00;81.40;;;;;;5021566;28;20802;-73
2022/08/30 08:40:55;;;;;;;4.80;2.17;;;30.50;77.60;;;;;;5013952;28;20439;-73
2022/08/30 08:43:25;;;;;;;5.30;2.97;;;31.00;76.70;;;;;;5016462;28;20526;-74
2022/08/30 08:45:57;;;;;;;2.90;2.30;;;31.70;74.40;;;;;;5004850;28;20792;-76
2022/08/30 08:48:35;;;;;;;5.57;2.97;;;32.00;72.90;;;;;;5017911;28;20530;-71
2022/08/30 08:54:02;;;;;;;2.83;2.27;;;32.80;70.80;;;;;;5016138;28;20442;-72
2022/08/30 08:56:29;;;;;;;3.73;2.10;;;33.70;69.30;;;;;;5017827;28;20533;-74
2022/08/30 08:58:57;;;;;;;4.70;3.17;;;33.20;68.70;;;;;;5019180;28;20454;-77
2022/08/30 09:01:27;;;;;;;3.90;3.00;;;33.00;69.30;;;;;;5018977;28;20479;-75
2022/08/30 09:03:57;;;;;;;6.50;2.27;;;33.10;68.60;;;;;;5020417;28;20479;-76
2022/08/30 09:06:48;;;;;;;2.73;1.97;;;33.60;68.40;;;;;;5009965;28;20447;-73
2022/08/30 09:09:18;;;;;;;3.30;2.30;;;33.90;66.90;;;;;;5015719;28;20444;-74
2022/08/30 09:11:47;;;;;;;4.80;2.10;;;34.20;66.00;;;;;;5012021;28;20532;-75
2022/08/30 09:14:18;;;;;;;2.20;1.87;;;34.50;65.20;;;;;;5019887;28;20477;-76
2022/08/30 09:16:56;;;;;;;2.53;2.10;;;34.80;64.60;;;;;;5022789;28;20490;-76
2022/08/30 09:19:40;;;;;;;2.53;1.93;;;34.80;63.80;;;;;;5022558;28;20479;-73
2022/08/30 09:22:22;;;;;;;5.20;1.83;;;34.60;64.50;;;;;;5026378;28;20448;-74
2022/08/30 09:24:52;;;;;;;5.40;1.83;;;34.30;64.20;;;;;;5016722;28;20471;-74
2022/08/30 09:27:24;;;;;;;4.43;2.20;;;32.90;66.30;;;;;;5013586;28;20472;-76
2022/08/30 09:29:56;;;;;;;4.43;2.00;;;32.10;69.20;;;;;;5017535;28;20444;-75
2022/08/30 09:32:28;;;;;;;5.27;1.80;;;32.20;69.40;;;;;;5030031;28;20456;-75
2022/08/30 09:34:57;;;;;;;2.33;1.70;;;31.70;69.70;;;;;;5017493;28;20479;-75
2022/08/30 09:37:48;;;;;;;4.33;2.17;;;30.00;72.80;;;;;;5021151;28;20515;-74
2022/08/30 09:40:31;;;;;;;9.80;2.17;;;29.30;76.20;;;;;;5038943;28;20487;-75
2022/08/30 09:43:07;;;;;;;3.10;2.00;;;30.10;76.50;;;;;;5016141;28;20471;-76
2022/08/30 09:45:37;;;;;;;3.40;2.17;;;30.40;75.00;;;;;;5015569;28;20826;-76
2022/08/30 09:48:31;;;;;;;4.60;1.90;;;29.60;75.20;;;;;;5016056;28;20451;-76
2022/08/30 09:51:19;;;;;;;3.23;2.20;;;28.30;78.60;;;;;;5008301;28;20448;-77
2022/08/30 09:53:53;;;;;;;2.37;2.00;;;27.60;80.90;;;;;;5009714;28;21041;-76
2022/08/30 09:56:27;;;;;;;3.03;2.00;;;27.00;83.40;;;;;;5016478;28;20515;-75
2022/08/30 09:59:02;;;;;;;5.77;2.47;;;26.60;85.50;;;;;;5026947;28;20895;-76
2022/08/30 10:01:33;;;;;;;2.73;1.87;;;27.20;86.20;;;;;;5007137;28;20465;-77
2022/08/30 10:04:06;;;;;;;3.97;2.00;;;28.10;82.60;;;;;;5015669;28;20561;-76
2022/08/30 10:06:41;;;;;;;4.67;2.03;;;28.00;81.90;;;;;;5013517;28;20454;-75
2022/08/30 10:09:22;;;;;;;2.67;1.70;;;28.00;82.90;;;;;;5015579;28;20455;-77
2022/08/30 10:11:56;;;;;;;4.00;2.20;;;27.80;83.00;;;;;;5003023;28;20463;-75
2022/08/30 10:14:48;;;;;;;5.03;1.93;;;27.40;83.70;;;;;;5013639;28;20487;-75
2022/08/30 10:17:27;;;;;;;3.63;1.90;;;27.10;84.40;;;;;;5005444;28;20601;-77
2022/08/30 10:20:03;;;;;;;2.57;2.20;;;27.00;84.90;;;;;;5010146;28;20805;-75
2022/08/30 10:22:36;;;;;;;9.17;4.50;;;27.10;85.40;;;;;;5009059;28;20448;-75
2022/08/30 10:25:09;;;;;;;7.10;4.93;;;27.00;86.00;;;;;;5015552;28;20467;-75
2022/08/30 10:27:47;;;;;;;5.00;2.43;;;27.40;85.50;;;;;;5004819;28;20532;-73
2022/08/30 10:30:16;;;;;;;4.30;2.73;;;27.20;84.40;;;;;;5008794;28;20466;-73
2022/08/30 10:32:49;;;;;;;2.37;1.50;;;27.00;85.30;;;;;;5006189;28;20440;-76
2022/08/30 10:35:21;;;;;;;2.93;2.20;;;26.80;85.20;;;;;;5005844;28;20521;-74
2022/08/30 10:37:55;;;;;;;2.33;1.50;;;26.50;86.40;;;;;;5021107;28;20554;-73
2022/08/30 10:43:25;;;;;;;3.27;2.80;;;26.60;87.60;;;;;;5015542;28;20996;-75
2022/08/30 10:45:57;;;;;;;2.60;1.60;;;27.00;87.40;;;;;;5014136;28;20487;-75
2022/08/30 10:48:30;;;;;;;4.57;2.00;;;27.30;85.40;;;;;;5014094;28;20454;-76
2022/08/30 10:51:02;;;;;;;4.47;1.53;;;27.20;85.40;;;;;;5011514;28;20451;-76
2022/08/30 10:53:37;;;;;;;4.63;2.03;;;26.70;85.80;;;;;;5014043;28;20534;-77
2022/08/30 10:56:08;;;;;;;7.97;1.60;;;26.40;87.80;;;;;;5013800;28;20578;-77
2022/08/30 10:58:38;;;;;;;3.93;1.33;;;26.20;88.00;;;;;;5010935;28;20539;-76
2022/08/30 11:01:22;;;;;;;2.60;1.40;;;25.90;88.50;;;;;;5013514;28;20444;-75
2022/08/30 11:04:31;;;;;;;3.03;1.70;;;25.90;89.50;;;;;;5022089;28;20505;-77
2022/08/30 11:07:07;;;;;;;4.70;1.63;;;25.70;90.00;;;;;;5008053;28;20488;-77
2022/08/30 11:09:48;;;;;;;2.83;2.10;;;25.40;90.00;;;;;;5013196;28;20945;-77
2022/08/30 11:12:36;;;;;;;4.60;1.63;;;25.40;90.30;;;;;;5009399;28;20457;-76
2022/08/30 11:15:18;;;;;;;4.70;2.10;;;25.40;90.50;;;;;;5010435;28;20470;-76
2022/08/30 11:17:53;;;;;;;4.00;2.00;;;25.50;90.60;;;;;;5007274;28;20480;-77
2022/08/30 11:20:30;;;;;;;2.90;1.60;;;25.80;90.20;;;;;;5009319;28;20451;-76
2022/08/30 11:23:26;;;;;;;2.30;1.47;;;26.20;89.30;;;;;;5010042;28;21002;-76
2022/08/30 11:25:58;;;;;;;3.63;1.40;;;26.20;90.00;;;;;;4997817;28;20939;-77
2022/08/30 11:29:04;;;;;;;3.50;1.40;;;26.00;90.20;;;;;;5009322;28;20452;-75
2022/08/30 11:31:41;;;;;;;2.40;1.60;;;26.40;90.20;;;;;;5011262;28;20436;-76
2022/08/30 11:34:09;;;;;;;3.30;1.83;;;26.70;89.00;;;;;;5014869;28;20559;-77
2022/08/30 11:37:02;;;;;;;3.53;1.40;;;26.70;88.30;;;;;;5015406;28;20545;-76
2022/08/30 11:39:56;;;;;;;2.93;1.70;;;26.40;88.40;;;;;;5022125;28;20442;-77
2022/08/30 11:42:39;;;;;;;4.63;1.80;;;26.00;90.00;;;;;;5024963;28;21038;-76
2022/08/30 11:45:58;;;;;;;6.70;1.37;;;25.80;90.40;;;;;;5029517;28;20482;-77
2022/08/30 11:48:51;;;;;;;3.70;1.47;;;25.80;90.50;;;;;;5008143;28;20498;-77
2022/08/30 11:51:49;;;;;;;3.23;1.23;;;26.00;90.30;;;;;;5000079;28;20447;-75
2022/08/30 11:54:30;;;;;;;2.13;1.20;;;26.40;89.20;;;;;;5008787;28;20452;-76
2022/08/30 11:57:06;;;;;;;2.10;1.00;;;26.70;87.50;;;;;;5000774;28;20474;-76
2022/08/30 11:59:46;;;;;;;3.00;0.93;;;27.00;86.60;;;;;;5013337;28;20454;-78
2022/08/30 12:02:43;;;;;;;3.67;1.30;;;26.90;85.30;;;;;;5013848;28;20551;-75
2022/08/30 12:05:45;;;;;;;2.60;1.37;;;26.80;85.70;;;;;;5006817;28;20455;-77
2022/08/30 12:08:45;;;;;;;3.10;1.10;;;26.40;86.70;;;;;;5009934;28;20449;-76
2022/08/30 12:11:47;;;;;;;2.43;1.10;;;26.30;87.30;;;;;;5010706;28;20443;-76
2022/08/30 12:14:47;;;;;;;2.80;1.20;;;25.90;87.70;;;;;;5004753;28;20546;-76
2022/08/30 12:20:42;;;;;;;3.10;1.23;;;25.10;90.40;;;;;;4971347;28;20445;-76
2022/08/30 12:23:20;;;;;;;3.93;1.53;;;25.00;90.80;;;;;;5008297;28;20582;-76
2022/08/30 12:25:48;;;;;;;2.00;1.57;;;24.80;91.20;;;;;;5016438;28;20450;-77
2022/08/30 12:28:20;;;;;;;2.73;1.40;;;25.00;91.10;;;;;;5013980;28;20543;-75
2022/08/30 12:30:47;;;;;;;1.30;1.10;;;25.10;90.90;;;;;;5004390;28;20490;-75
2022/08/30 12:33:31;;;;;;;4.50;1.20;;;25.40;90.10;;;;;;5012767;28;20597;-77
2022/08/30 12:36:00;;;;;;;1.57;1.20;;;25.80;88.70;;;;;;5008522;28;20456;-77
2022/08/30 12:38:29;;;;;;;2.20;1.17;;;25.80;88.90;;;;;;5015731;28;20475;-75
2022/08/30 12:41:00;;;;;;;2.53;0.77;;;25.60;88.00;;;;;;5020203;28;20447;-76
2022/08/30 12:43:33;;;;;;;3.03;1.77;;;25.30;87.30;;;;;;5015688;28;20474;-76
2022/08/30 12:46:06;;;;;;;2.10;1.23;;;25.00;88.00;;;;;;5001684;28;20853;-77
2022/08/30 12:48:39;;;;;;;2.07;1.33;;;24.80;88.50;;;;;;5014435;28;20522;-77
2022/08/30 12:51:09;;;;;;;2.70;1.10;;;24.80;89.00;;;;;;5021099;28;20448;-77
2022/08/30 12:53:40;;;;;;;1.37;1.00;;;24.90;88.70;;;;;;5018239;28;20463;-76
2022/08/30 12:56:12;;;;;;;1.60;1.27;;;24.90;88.60;;;;;;5017351;28;20458;-77
2022/08/30 12:58:42;;;;;;;2.10;1.20;;;25.00;89.10;;;;;;5018585;28;20479;-77
2022/08/30 13:01:26;;;;;;;3.93;1.37;;;25.20;89.50;;;;;;5018166;28;20433;-76
2022/08/30 13:03:58;;;;;;;1.40;1.10;;;25.30;89.20;;;;;;5017150;28;20483;-77
2022/08/30 13:06:42;;;;;;;3.20;1.30;;;25.30;88.80;;;;;;5017998;28;20452;-79
2022/08/30 13:09:11;;;;;;;2.10;1.40;;;25.60;88.20;;;;;;5016422;28;20899;-77
2022/08/30 13:11:40;;;;;;;6.53;1.30;;;25.70;87.00;;;;;;5019290;28;20463;-77
2022/08/30 13:14:36;;;;;;;3.60;1.03;;;25.70;87.00;;;;;;5018459;28;20474;-74
2022/08/30 13:17:23;;;;;;;2.97;1.50;;;25.70;86.70;;;;;;5022639;28;20998;-75
2022/08/30 13:20:00;;;;;;;3.07;1.30;;;25.40;86.70;;;;;;5015075;28;20454;-77
2022/08/30 13:22:29;;;;;;;1.97;1.10;;;25.10;87.10;;;;;;5006593;28;20459;-76